Airfield :
LOGIN :

Register | Disclaimer

   EN    FR    IT 

 










Legend :    VFR   Marginal VFR   IFR   Intensive IFR   Very Intensive IFR
Visi :
Ceiling :
>= 8 km
>= 3000ft
5 to 8 km
1000 to 3000 ft
1500m to 5 km
500 to 1000 ft
800 to 1500m
200 to 500 ft
< 800m
< 200 ft
Symbols :   Thunderstorms  Fog  Heavy snow  Heavy precipitations  Wind > 20 kt
SIGMETs :     Misc.  Thunderstorms  Icing  Turbulence  Mountain Waves  Volcanic Ashes







- Airport Elevation : 297 ft
- IATA code : UIP
- Download approach charts


LFRQ - Quimper Pluguffan

CURRENT METAR :
  • 162200Z AUTO 27004KT CAVOK 06/03 Q1027 BECMG 35012KT

EXPIRED METARs :
  • 162130Z AUTO 27007KT CAVOK 06/03 Q1027 BECMG 35012KT
  • 162100Z AUTO 26005KT 9999 FEW034 OVC096 06/03 Q1028 BECMG 35012KT
  • 162030Z AUTO 28004KT 9999 FEW028 OVC096 05/02 Q1028 BECMG 35012KT
  • 162000Z AUTO VRB02KT CAVOK 05/02 Q1027 BECMG 35012KT
  • 161930Z AUTO 26004KT CAVOK 05/02 Q1027 BECMG 35012KT

TAF TAF LFRQ
Valid from the 16 at 18:00 until the 17 at 03:00 UTC


161700Z 1618/1703 35012KT 9999 FEW033
No reported NOTAMs for that airfield.



MET'MAP, your aeronautical weather chart ! - Copyright ORBIFLY December 2007 - Disclaimer

ORBIFLY MET'MAP TEAM :

Programming & Development : Alexandra Zaïnal
Concept & Development : Baudouin d'Aumeries
Co-Development & Prog : Marc-Olivier Méhu
Technical & hardware support : Manuel Goepfert

Contact : metmap@orbifly.com




SOURCES & CREDITS :

   NOAA